createdAt,value
2018-06-27T00:01:47.900Z,15.00
2018-06-27T00:04:16.788Z,14.90
2018-06-27T00:06:45.730Z,14.90
2018-06-27T00:09:14.552Z,14.90
2018-06-27T00:11:43.424Z,14.90
2018-06-27T00:14:12.371Z,14.90
2018-06-27T00:16:41.192Z,14.90
2018-06-27T00:19:10.115Z,14.90
2018-06-27T00:21:39.055Z,14.80
2018-06-27T00:24:08.021Z,14.80
2018-06-27T00:26:36.848Z,14.80
2018-06-27T00:29:05.898Z,14.70
2018-06-27T00:31:34.968Z,14.70
2018-06-27T00:34:03.828Z,14.70
2018-06-27T00:36:32.642Z,14.60
2018-06-27T00:39:01.951Z,14.60
2018-06-27T00:41:30.838Z,14.50
2018-06-27T00:44:05.138Z,14.40
2018-06-27T00:46:34.604Z,14.30
2018-06-27T00:49:03.547Z,14.30
2018-06-27T00:51:32.737Z,14.20
2018-06-27T00:54:06.782Z,14.20
2018-06-27T00:56:37.389Z,14.20
2018-06-27T00:59:06.226Z,14.20
2018-06-27T01:01:35.641Z,14.10
2018-06-27T01:04:04.426Z,14.10
2018-06-27T01:06:33.398Z,14.00
2018-06-27T01:09:02.512Z,14.00
2018-06-27T01:11:31.422Z,14.00
2018-06-27T01:14:00.184Z,13.90
2018-06-27T01:16:29.022Z,13.90
2018-06-27T01:18:57.800Z,13.90
2018-06-27T01:21:27.261Z,13.80
2018-06-27T01:23:56.048Z,13.80
2018-06-27T01:26:25.318Z,13.80
2018-06-27T01:28:54.071Z,13.80
2018-06-27T01:31:22.905Z,13.70
2018-06-27T01:33:51.712Z,13.70
2018-06-27T01:36:20.458Z,13.70
2018-06-27T01:38:49.663Z,13.60
2018-06-27T01:41:18.601Z,13.60
2018-06-27T01:43:47.372Z,13.60
2018-06-27T01:46:16.242Z,13.60
2018-06-27T01:48:45.121Z,13.50
2018-06-27T01:51:14.172Z,13.50
2018-06-27T01:53:42.928Z,13.50
2018-06-27T01:56:12.028Z,13.50
2018-06-27T01:58:40.896Z,13.50
2018-06-27T02:01:09.779Z,13.50
2018-06-27T02:03:38.518Z,13.40
2018-06-27T02:06:07.352Z,13.40
2018-06-27T02:08:36.398Z,13.40
2018-06-27T02:11:05.274Z,13.40
2018-06-27T02:13:34.198Z,13.40
2018-06-27T02:16:02.958Z,13.30
2018-06-27T02:18:31.798Z,13.30
2018-06-27T02:21:00.674Z,13.30
2018-06-27T02:23:29.428Z,13.30
2018-06-27T02:25:58.430Z,13.30
2018-06-27T02:28:27.196Z,13.30
2018-06-27T02:30:55.992Z,13.30
2018-06-27T02:33:29.798Z,13.30
2018-06-27T02:35:59.567Z,13.40
2018-06-27T02:38:28.996Z,13.40
2018-06-27T02:40:57.904Z,13.40
2018-06-27T02:43:26.686Z,13.50
2018-06-27T02:45:55.483Z,13.60
2018-06-27T02:48:24.360Z,13.60
2018-06-27T02:50:53.176Z,13.70
2018-06-27T02:53:21.998Z,13.70
2018-06-27T02:55:50.762Z,13.70
2018-06-27T02:58:19.523Z,13.70
2018-06-27T03:00:48.379Z,13.70
2018-06-27T03:05:45.619Z,13.80
2018-06-27T03:08:14.426Z,13.80
2018-06-27T03:10:43.210Z,13.80
2018-06-27T03:13:12.056Z,13.80
2018-06-27T03:15:40.772Z,13.90
2018-06-27T03:18:09.538Z,13.90
2018-06-27T03:20:38.305Z,13.90
2018-06-27T03:23:07.106Z,14.00
2018-06-27T03:25:35.916Z,14.10
2018-06-27T03:28:05.065Z,14.10
2018-06-27T03:30:33.929Z,14.20
2018-06-27T03:33:02.876Z,14.20
2018-06-27T03:35:31.661Z,14.30
2018-06-27T03:38:00.612Z,14.30
2018-06-27T03:42:57.992Z,14.30
2018-06-27T03:45:26.820Z,14.30
2018-06-27T03:47:55.687Z,14.30
2018-06-27T03:50:24.537Z,14.30
2018-06-27T03:52:53.458Z,14.20
2018-06-27T03:55:22.509Z,14.20
2018-06-27T03:57:51.361Z,14.30
2018-06-27T04:00:20.193Z,14.30
2018-06-27T04:02:49.013Z,14.40
2018-06-27T04:05:17.765Z,14.50
2018-06-27T04:07:46.701Z,14.50
2018-06-27T04:10:15.465Z,14.50
2018-06-27T04:12:44.466Z,14.60
2018-06-27T04:15:13.289Z,14.70
2018-06-27T04:17:42.073Z,14.90
2018-06-27T04:20:10.931Z,15.00
2018-06-27T04:22:39.689Z,15.10
2018-06-27T04:25:08.625Z,15.20
2018-06-27T04:27:37.453Z,15.30
2018-06-27T04:30:06.310Z,15.30
2018-06-27T04:32:35.143Z,15.30
2018-06-27T04:35:04.237Z,15.20
2018-06-27T04:37:33.078Z,15.20
2018-06-27T04:40:01.835Z,15.10
2018-06-27T04:42:30.637Z,15.10
2018-06-27T04:44:59.469Z,15.20
2018-06-27T04:47:28.499Z,15.30
2018-06-27T04:49:57.353Z,15.40
2018-06-27T04:52:26.261Z,15.50
2018-06-27T04:54:55.120Z,15.50
2018-06-27T04:59:52.517Z,15.80
2018-06-27T05:02:21.449Z,16.00
2018-06-27T05:04:50.296Z,16.30
2018-06-27T05:07:19.109Z,16.60
2018-06-27T05:09:47.963Z,17.20
2018-06-27T05:14:45.396Z,17.90
2018-06-27T05:17:14.249Z,18.30
2018-06-27T05:19:44.303Z,18.70
2018-06-27T05:22:14.190Z,18.70
2018-06-27T05:24:43.694Z,18.80
2018-06-27T05:27:24.809Z,18.80
2018-06-27T05:29:53.851Z,18.70
2018-06-27T05:32:22.694Z,18.30
2018-06-27T05:34:51.868Z,18.30
2018-06-27T05:37:20.715Z,18.20
2018-06-27T05:39:49.828Z,18.30
2018-06-27T05:42:18.689Z,19.20
2018-06-27T05:44:47.715Z,20.10
2018-06-27T05:47:16.544Z,20.40
2018-06-27T05:49:45.807Z,20.30
2018-06-27T05:52:14.611Z,20.90
2018-06-27T05:54:43.567Z,22.20
2018-06-27T05:57:12.621Z,23.40
2018-06-27T05:59:41.467Z,24.70
2018-06-27T06:02:10.301Z,25.00
2018-06-27T06:04:39.075Z,25.00
2018-06-27T06:07:07.854Z,25.30
2018-06-27T06:09:36.951Z,25.70
2018-06-27T06:12:05.827Z,26.10
2018-06-27T06:14:34.628Z,26.70
2018-06-27T06:17:03.654Z,27.20
2018-06-27T06:19:32.385Z,27.60
2018-06-27T06:22:01.754Z,27.70
2018-06-27T06:24:30.543Z,27.70
2018-06-27T06:29:28.476Z,28.90
2018-06-27T06:31:57.398Z,28.80
2018-06-27T06:34:26.161Z,28.80
2018-06-27T06:36:55.090Z,28.70
2018-06-27T06:39:23.944Z,28.80
2018-06-27T06:41:52.811Z,28.80
2018-06-27T06:44:21.584Z,29.50
2018-06-27T06:46:50.519Z,29.90
2018-06-27T06:49:19.424Z,30.00
2018-06-27T06:51:48.604Z,29.60
2018-06-27T06:54:17.647Z,30.10
2018-06-27T06:56:46.778Z,30.10
2018-06-27T06:59:15.638Z,29.70
2018-06-27T07:01:44.811Z,28.70
2018-06-27T07:09:12.780Z,26.80
2018-06-27T07:11:41.639Z,25.60
2018-06-27T07:14:11.315Z,25.00
2018-06-27T07:19:09.271Z,24.40
2018-06-27T07:21:38.425Z,24.30
2018-06-27T07:24:07.443Z,24.00
2018-06-27T07:26:36.218Z,23.90
2018-06-27T07:29:05.057Z,23.80
2018-06-27T07:31:33.786Z,23.90
2018-06-27T07:34:02.600Z,24.00
2018-06-27T07:36:31.460Z,23.80
2018-06-27T07:39:00.306Z,23.60
2018-06-27T07:41:29.184Z,23.50
2018-06-27T07:43:58.165Z,23.30
2018-06-27T07:46:27.024Z,23.10
2018-06-27T07:48:56.141Z,23.00
2018-06-27T07:51:24.985Z,23.00
2018-06-27T07:53:53.852Z,23.00
2018-06-27T07:56:22.750Z,22.90
2018-06-27T07:58:51.658Z,22.80
2018-06-27T08:01:20.551Z,23.00
2018-06-27T08:06:17.779Z,23.10
2018-06-27T08:08:46.592Z,23.30
2018-06-27T08:11:15.582Z,23.40
2018-06-27T08:13:44.491Z,23.30
2018-06-27T08:16:13.328Z,23.20
2018-06-27T08:18:43.519Z,23.40
2018-06-27T08:21:12.528Z,23.30
2018-06-27T08:23:41.446Z,23.30
2018-06-27T08:26:10.396Z,23.50
2018-06-27T08:28:39.258Z,23.40
2018-06-27T08:31:08.146Z,23.30
2018-06-27T08:33:36.992Z,23.00
2018-06-27T08:36:05.890Z,23.00
2018-06-27T08:38:34.742Z,22.60
2018-06-27T08:41:03.671Z,22.50
2018-06-27T08:43:32.468Z,22.60
2018-06-27T08:46:01.690Z,22.80
2018-06-27T08:48:30.520Z,23.10
2018-06-27T08:51:00.051Z,23.00
2018-06-27T08:53:28.912Z,22.60
2018-06-27T08:55:57.752Z,23.00
2018-06-27T08:58:26.728Z,23.10
2018-06-27T09:00:55.566Z,23.00
2018-06-27T09:03:24.308Z,23.00
2018-06-27T09:05:53.250Z,23.00
2018-06-27T09:10:51.548Z,22.70
2018-06-27T09:13:21.141Z,22.70
2018-06-27T09:15:50.071Z,22.90
2018-06-27T09:18:19.468Z,23.00
2018-06-27T09:20:48.326Z,23.10
2018-06-27T09:23:17.324Z,23.10
2018-06-27T09:25:46.108Z,22.90
2018-06-27T09:30:43.313Z,22.70
2018-06-27T09:33:12.147Z,22.80
2018-06-27T09:35:40.990Z,22.40
2018-06-27T09:38:09.740Z,22.70
2018-06-27T09:40:38.555Z,23.00
2018-06-27T09:43:07.536Z,23.20
2018-06-27T09:45:36.474Z,23.20
2018-06-27T09:48:05.313Z,23.10
2018-06-27T09:50:34.161Z,23.10
2018-06-27T09:53:02.967Z,23.00
2018-06-27T09:55:31.935Z,23.10
2018-06-27T09:58:00.839Z,23.00
2018-06-27T10:00:34.813Z,23.30
2018-06-27T10:03:03.662Z,23.20
2018-06-27T10:05:32.524Z,23.00
2018-06-27T10:08:01.295Z,22.60
2018-06-27T10:10:30.216Z,22.30
2018-06-27T10:12:58.996Z,22.00
2018-06-27T10:15:27.928Z,22.10
2018-06-27T10:17:57.658Z,22.40
2018-06-27T10:20:26.386Z,22.50
2018-06-27T10:22:55.318Z,22.80
2018-06-27T10:25:24.394Z,23.10
2018-06-27T10:27:53.484Z,23.30
2018-06-27T10:30:22.364Z,23.50
2018-06-27T10:32:51.182Z,23.40
2018-06-27T10:35:20.131Z,23.20
2018-06-27T10:37:48.918Z,23.30
2018-06-27T10:40:17.742Z,23.40
2018-06-27T10:42:46.548Z,23.50
2018-06-27T10:45:15.312Z,23.60
2018-06-27T10:47:44.088Z,23.90
2018-06-27T10:50:12.946Z,24.20
2018-06-27T10:52:41.772Z,24.00
2018-06-27T10:55:15.942Z,24.40
2018-06-27T10:57:44.698Z,24.90
2018-06-27T11:00:13.749Z,24.80
2018-06-27T11:02:42.564Z,24.40
2018-06-27T11:05:11.592Z,24.20
2018-06-27T11:07:40.617Z,23.90
2018-06-27T11:10:09.470Z,23.90
2018-06-27T11:12:38.409Z,23.90
2018-06-27T11:15:07.954Z,24.10
2018-06-27T11:17:36.748Z,24.60
2018-06-27T11:20:05.855Z,24.90
2018-06-27T11:22:34.986Z,24.90
2018-06-27T11:25:03.824Z,24.80
2018-06-27T11:27:32.600Z,25.10
2018-06-27T11:30:01.513Z,25.40
2018-06-27T11:34:59.079Z,27.60
2018-06-27T11:37:27.849Z,27.60
2018-06-27T11:39:56.665Z,26.60
2018-06-27T11:42:25.455Z,25.90
2018-06-27T11:44:54.256Z,25.50
2018-06-27T11:47:23.155Z,25.40
2018-06-27T11:49:51.833Z,26.00
2018-06-27T11:52:20.753Z,27.00
2018-06-27T11:54:54.814Z,27.10
2018-06-27T11:57:23.733Z,26.50
2018-06-27T11:59:52.649Z,25.50
2018-06-27T12:02:21.418Z,24.60
2018-06-27T12:04:50.322Z,24.70
2018-06-27T12:07:19.189Z,25.80
2018-06-27T12:09:48.319Z,26.50
2018-06-27T12:12:17.343Z,27.60
2018-06-27T12:14:46.227Z,28.10
2018-06-27T12:17:15.091Z,28.10
2018-06-27T12:19:43.923Z,28.60
2018-06-27T12:22:13.063Z,29.20
2018-06-27T12:24:41.833Z,28.90
2018-06-27T12:27:10.781Z,28.60
2018-06-27T12:29:39.553Z,29.20
2018-06-27T12:32:08.503Z,30.10
2018-06-27T12:34:37.513Z,30.00
2018-06-27T12:37:06.457Z,29.70
2018-06-27T12:39:35.237Z,29.20
2018-06-27T12:42:04.132Z,27.60
2018-06-27T12:44:33.060Z,26.50
2018-06-27T12:49:30.317Z,25.00
2018-06-27T12:51:59.273Z,24.80
2018-06-27T12:54:28.047Z,25.10
2018-06-27T12:56:56.891Z,25.20
2018-06-27T12:59:35.505Z,24.90
2018-06-27T13:02:04.233Z,24.60
2018-06-27T13:04:33.033Z,24.70
2018-06-27T13:07:01.876Z,24.50
2018-06-27T13:09:30.637Z,24.40
2018-06-27T13:11:59.568Z,24.30
2018-06-27T13:14:28.549Z,25.00
2018-06-27T13:16:57.429Z,25.70
2018-06-27T13:19:26.201Z,26.00
2018-06-27T13:21:55.021Z,25.90
2018-06-27T13:24:23.899Z,26.60
2018-06-27T13:26:52.696Z,26.50
2018-06-27T13:29:21.565Z,26.00
2018-06-27T13:31:50.522Z,26.20
2018-06-27T13:34:19.507Z,26.40
2018-06-27T13:36:48.673Z,26.40
2018-06-27T13:39:17.426Z,26.60
2018-06-27T13:41:46.887Z,27.20
2018-06-27T13:44:15.759Z,27.00
2018-06-27T13:46:44.891Z,26.80
2018-06-27T13:49:13.717Z,26.60
2018-06-27T13:51:47.819Z,27.00
2018-06-27T13:54:18.945Z,27.10
2018-06-27T13:56:47.819Z,26.80
2018-06-27T13:59:16.695Z,26.00
2018-06-27T14:01:45.573Z,25.70
2018-06-27T14:04:14.311Z,25.30
2018-06-27T14:06:42.976Z,25.20
2018-06-27T14:09:11.803Z,24.80
2018-06-27T14:11:40.637Z,24.60
2018-06-27T14:14:09.374Z,24.50
2018-06-27T14:16:38.075Z,24.60
2018-06-27T14:19:06.921Z,24.50
2018-06-27T14:21:35.960Z,25.10
2018-06-27T14:24:05.031Z,25.40
2018-06-27T14:26:33.957Z,26.00
2018-06-27T14:31:31.361Z,25.50
2018-06-27T14:34:00.119Z,25.50
2018-06-27T14:36:29.013Z,25.20
2018-06-27T14:41:27.457Z,26.10
2018-06-27T14:43:56.318Z,25.50
2018-06-27T14:46:25.209Z,25.10
2018-06-27T14:48:54.063Z,24.80
2018-06-27T14:51:23.227Z,24.90
2018-06-27T14:53:52.059Z,24.70
2018-06-27T14:56:20.829Z,24.70
2018-06-27T14:58:59.337Z,24.90
2018-06-27T15:01:31.924Z,25.40
2018-06-27T15:04:00.859Z,25.50
2018-06-27T15:06:33.629Z,25.20
2018-06-27T15:09:02.479Z,25.30
2018-06-27T15:11:31.433Z,25.40
2018-06-27T15:14:00.328Z,25.80
2018-06-27T15:16:29.212Z,25.30
2018-06-27T15:18:58.088Z,24.90
2018-06-27T15:21:33.326Z,24.90
2018-06-27T15:24:02.483Z,24.90
2018-06-27T15:26:41.550Z,25.10
2018-06-27T15:31:40.189Z,25.10
2018-06-27T15:34:09.029Z,25.10
2018-06-27T15:36:38.200Z,25.00
2018-06-27T15:39:08.594Z,24.80
2018-06-27T15:41:37.402Z,24.80
2018-06-27T15:44:06.770Z,24.70
2018-06-27T15:46:40.418Z,24.50
2018-06-27T15:49:10.268Z,24.10
2018-06-27T15:51:39.545Z,24.30
2018-06-27T15:54:08.376Z,24.10
2018-06-27T15:56:37.255Z,24.30
2018-06-27T15:59:06.094Z,24.20
2018-06-27T16:01:34.905Z,24.20
2018-06-27T16:04:04.782Z,24.50
2018-06-27T16:06:33.608Z,24.60
2018-06-27T16:09:02.352Z,24.30
2018-06-27T16:11:31.432Z,24.10
2018-06-27T16:14:00.665Z,24.00
2018-06-27T16:16:29.609Z,24.00
2018-06-27T16:18:58.483Z,24.20
2018-06-27T16:21:27.738Z,24.00
2018-06-27T16:23:56.672Z,23.80
2018-06-27T16:26:25.509Z,23.60
2018-06-27T16:28:54.646Z,23.70
2018-06-27T16:31:23.532Z,23.80
2018-06-27T16:33:52.394Z,23.90
2018-06-27T16:36:21.428Z,23.90
2018-06-27T16:38:50.384Z,24.00
2018-06-27T16:41:19.277Z,24.00
2018-06-27T16:43:48.139Z,23.80
2018-06-27T16:46:17.001Z,23.80
2018-06-27T16:48:45.857Z,23.30
2018-06-27T16:51:14.866Z,23.20
2018-06-27T16:53:43.762Z,23.00
2018-06-27T16:56:12.604Z,22.90
2018-06-27T16:58:41.435Z,22.80
2018-06-27T17:01:10.321Z,22.60
2018-06-27T17:03:39.032Z,22.40
2018-06-27T17:06:07.887Z,22.40
2018-06-27T17:08:36.688Z,22.20
2018-06-27T17:11:05.504Z,22.00
2018-06-27T17:13:34.511Z,22.00
2018-06-27T17:18:32.199Z,21.80
2018-06-27T17:21:01.053Z,21.80
2018-06-27T17:23:30.285Z,21.90
2018-06-27T17:25:59.466Z,21.90
2018-06-27T17:28:28.867Z,21.90
2018-06-27T17:30:57.746Z,21.80
2018-06-27T17:33:26.621Z,21.80
2018-06-27T17:35:55.456Z,21.70
2018-06-27T17:38:24.416Z,21.70
2018-06-27T17:40:53.266Z,21.60
2018-06-27T17:43:22.467Z,21.50
2018-06-27T17:45:51.475Z,21.50
2018-06-27T17:48:20.400Z,21.40
2018-06-27T17:50:49.418Z,21.30
2018-06-27T17:53:18.251Z,21.30
2018-06-27T17:55:47.092Z,21.30
2018-06-27T17:58:15.878Z,21.40
2018-06-27T18:00:44.839Z,21.30
2018-06-27T18:03:14.074Z,21.30
2018-06-27T18:05:42.996Z,21.20
2018-06-27T18:08:12.038Z,21.10
2018-06-27T18:10:40.921Z,21.10
2018-06-27T18:15:38.180Z,20.90
2018-06-27T18:18:06.987Z,20.90
2018-06-27T18:20:35.909Z,20.80
2018-06-27T18:23:04.980Z,20.90
2018-06-27T18:25:33.867Z,20.80
2018-06-27T18:28:02.801Z,20.80
2018-06-27T18:30:31.877Z,20.80
2018-06-27T18:33:01.205Z,20.70
2018-06-27T18:35:29.981Z,20.70
2018-06-27T18:37:58.870Z,20.50
2018-06-27T18:40:27.752Z,20.40
2018-06-27T18:42:56.892Z,20.50
2018-06-27T18:45:25.817Z,20.50
2018-06-27T18:50:23.090Z,20.40
2018-06-27T18:52:51.996Z,20.40
2018-06-27T18:55:20.958Z,20.40
2018-06-27T18:57:49.726Z,20.40
2018-06-27T19:00:18.546Z,20.30
2018-06-27T19:02:47.489Z,20.30
2018-06-27T19:05:16.373Z,20.30
2018-06-27T19:07:45.260Z,20.30
2018-06-27T19:10:14.319Z,20.40
2018-06-27T19:15:12.003Z,20.30
2018-06-27T19:17:40.881Z,20.30
2018-06-27T19:20:09.710Z,20.20
2018-06-27T19:22:38.474Z,20.20
2018-06-27T19:25:07.457Z,20.10
2018-06-27T19:27:36.626Z,20.00
2018-06-27T19:30:06.192Z,19.90
2018-06-27T19:32:35.205Z,19.80
2018-06-27T19:35:04.189Z,19.80
2018-06-27T19:37:33.060Z,19.70
2018-06-27T19:40:01.984Z,19.70
2018-06-27T19:42:30.817Z,19.60
2018-06-27T19:44:59.857Z,19.60
2018-06-27T19:47:29.028Z,19.60
2018-06-27T19:49:57.828Z,19.60
2018-06-27T19:52:26.798Z,19.60
2018-06-27T19:54:55.600Z,19.60
2018-06-27T19:57:24.534Z,19.60
2018-06-27T19:59:53.596Z,19.50
2018-06-27T20:02:22.481Z,19.50
2018-06-27T20:04:51.239Z,19.50
2018-06-27T20:07:20.195Z,19.40
2018-06-27T20:09:50.074Z,19.40
2018-06-27T20:12:19.149Z,19.30
2018-06-27T20:14:48.050Z,19.30
2018-06-27T20:17:32.900Z,19.30
2018-06-27T20:20:01.941Z,19.20
2018-06-27T20:22:30.861Z,19.10
2018-06-27T20:24:59.872Z,19.00
2018-06-27T20:27:28.746Z,19.00
2018-06-27T20:29:57.574Z,18.90
2018-06-27T20:32:26.650Z,18.90
2018-06-27T20:35:01.266Z,18.80
2018-06-27T20:37:30.110Z,18.70
2018-06-27T20:39:58.961Z,18.60
2018-06-27T20:42:38.116Z,18.60
2018-06-27T20:45:07.072Z,18.50
2018-06-27T20:47:35.936Z,18.50
2018-06-27T20:50:10.712Z,18.40
2018-06-27T20:52:40.039Z,18.40
2018-06-27T20:55:08.878Z,18.40
2018-06-27T20:57:37.802Z,18.40
2018-06-27T21:00:07.596Z,18.40
2018-06-27T21:02:36.442Z,18.30
2018-06-27T21:05:05.906Z,18.30
2018-06-27T21:07:34.676Z,18.20
2018-06-27T21:10:05.023Z,18.20
2018-06-27T21:12:33.993Z,18.20
2018-06-27T21:15:02.781Z,18.10
2018-06-27T21:17:31.678Z,18.10
2018-06-27T21:20:01.578Z,18.10
2018-06-27T21:22:30.402Z,18.00
2018-06-27T21:24:59.394Z,18.10
2018-06-27T21:27:28.207Z,18.00
2018-06-27T21:29:57.183Z,18.00
2018-06-27T21:32:25.998Z,17.90
2018-06-27T21:34:54.741Z,17.90
2018-06-27T21:37:23.768Z,17.80
2018-06-27T21:39:52.638Z,17.80
2018-06-27T21:42:37.879Z,17.70
2018-06-27T21:45:06.813Z,17.70
2018-06-27T21:47:35.634Z,17.60
2018-06-27T21:50:04.586Z,17.60
2018-06-27T21:52:33.593Z,17.60
2018-06-27T21:55:02.334Z,17.60
2018-06-27T21:57:31.099Z,17.50
2018-06-27T21:59:59.912Z,17.50
2018-06-27T22:02:28.724Z,17.40
2018-06-27T22:04:57.566Z,17.40
2018-06-27T22:07:26.344Z,17.30
2018-06-27T22:09:55.222Z,17.30
2018-06-27T22:12:24.709Z,17.20
2018-06-27T22:14:53.542Z,17.00
2018-06-27T22:17:22.438Z,17.00
2018-06-27T22:19:51.185Z,16.90
2018-06-27T22:22:20.052Z,16.80
2018-06-27T22:24:48.793Z,16.70
2018-06-27T22:27:17.653Z,16.60
2018-06-27T22:29:46.477Z,16.50
2018-06-27T22:32:15.466Z,16.40
2018-06-27T22:34:44.337Z,16.40
2018-06-27T22:37:13.177Z,16.40
2018-06-27T22:39:41.952Z,16.30
2018-06-27T22:42:10.822Z,16.30
2018-06-27T22:44:39.686Z,16.20
2018-06-27T22:47:08.573Z,16.20
2018-06-27T22:49:37.392Z,16.10
2018-06-27T22:52:06.728Z,16.10
2018-06-27T22:54:35.535Z,16.10
2018-06-27T22:57:04.392Z,16.00
2018-06-27T22:59:33.160Z,15.90
2018-06-27T23:02:02.028Z,15.90
2018-06-27T23:04:30.798Z,15.80
2018-06-27T23:06:59.817Z,15.80
2018-06-27T23:09:28.875Z,15.70
2018-06-27T23:11:57.754Z,15.70
2018-06-27T23:14:26.653Z,15.70
2018-06-27T23:16:55.421Z,15.70
2018-06-27T23:19:24.308Z,15.70
2018-06-27T23:21:53.109Z,15.70
2018-06-27T23:24:22.021Z,15.60
2018-06-27T23:26:56.295Z,15.60
2018-06-27T23:29:25.245Z,15.50
2018-06-27T23:31:54.890Z,15.40
2018-06-27T23:34:24.017Z,15.50
2018-06-27T23:36:52.886Z,15.40
2018-06-27T23:39:21.693Z,15.40
2018-06-27T23:41:50.580Z,15.40
2018-06-27T23:46:47.984Z,15.30
2018-06-27T23:49:16.789Z,15.30
2018-06-27T23:51:46.631Z,15.30
2018-06-27T23:54:15.477Z,15.30
2018-06-27T23:56:44.446Z,15.30
2018-06-27T23:59:13.333Z,15.20
